Time,TemperatureF,DewpointF,PressureIn,WindDirection,WindDirectionDegrees,WindSpeedMPH,WindSpeedGustMPH,Humidity,HourlyPrecipIn,Conditions,Clouds,dailyrainin,SoftwareType,DateUTC
2013-05-19 00:01:00,66.8,65.6,30.13,ESE,105,0.0,0.0,96,0.06,RA,,0.00,WeatherDisplay:10.37,2013-05-19 04:01:00,
2013-05-19 00:06:00,66.8,65.6,30.13,ESE,110,0.0,0.0,96,0.05,RA,,0.00,WeatherDisplay:10.37,2013-05-19 04:06:00,
2013-05-19 00:11:00,66.9,65.7,30.13,East,96,0.0,0.0,96,0.05,CLR,,0.00,WeatherDisplay:10.37,2013-05-19 04:11:00,
2013-05-19 00:16:00,66.8,65.6,30.12,ESE,110,1.1,1.1,96,0.05,CLR,,0.00,WeatherDisplay:10.37,2013-05-19 04:16:00,
2013-05-19 00:21:00,66.7,65.5,30.12,ESE,110,0.0,0.0,96,0.05,RA,,0.01,WeatherDisplay:10.37,2013-05-19 04:21:00,
2013-05-19 00:26:00,66.7,65.5,30.12,ESE,110,0.0,0.0,96,0.05,RA,,0.01,WeatherDisplay:10.37,2013-05-19 04:26:00,
2013-05-19 00:31:00,66.7,65.5,30.12,ENE,68,0.0,0.0,96,0.04,CLR,,0.01,WeatherDisplay:10.37,2013-05-19 04:31:00,
2013-05-19 00:36:00,66.7,65.5,30.12,NE,54,0.0,0.0,96,0.04,CLR,,0.01,WeatherDisplay:10.37,2013-05-19 04:36:00,
2013-05-19 00:41:00,66.6,65.4,30.12,NE,54,0.0,0.0,96,0.03,CLR,,0.01,WeatherDisplay:10.37,2013-05-19 04:41:00,
2013-05-19 00:46:00,66.5,65.3,30.12,NE,54,0.0,0.0,96,0.03,CLR,,0.01,WeatherDisplay:10.37,2013-05-19 04:46:00,
2013-05-19 00:51:00,66.4,65.2,30.12,NE,54,0.0,0.0,96,0.02,CLR,,0.01,WeatherDisplay:10.37,2013-05-19 04:51:00,
2013-05-19 00:56:00,66.4,65.2,30.12,NE,54,0.0,0.0,96,0.02,CLR,,0.01,WeatherDisplay:10.37,2013-05-19 04:56:00,
2013-05-19 01:01:00,66.4,65.2,30.12,NE,54,0.0,0.0,96,0.01,CLR,,0.01,WeatherDisplay:10.37,2013-05-19 05:01:00,
2013-05-19 01:06:00,66.4,65.5,30.12,NE,54,0.0,0.0,97,0.01,CLR,,0.01,WeatherDisplay:10.37,2013-05-19 05:06:00,
2013-05-19 01:11:00,66.4,65.5,30.12,NE,54,0.0,0.0,97,0.01,CLR,,0.01,WeatherDisplay:10.37,2013-05-19 05:11:00,
2013-05-19 01:16:00,66.4,65.5,30.12,NE,54,0.0,0.0,97,0.01,CLR,,0.01,WeatherDisplay:10.37,2013-05-19 05:16:00,
2013-05-19 01:21:00,66.3,65.4,30.12,NE,54,0.0,0.0,97,0.00,CLR,,0.01,WeatherDisplay:10.37,2013-05-19 05:21:00,
2013-05-19 01:26:00,66.3,65.4,30.12,NE,53,0.0,0.0,97,0.00,CLR,,0.01,WeatherDisplay:10.37,2013-05-19 05:26:00,
2013-05-19 01:31:00,66.3,65.4,30.12,NE,54,0.0,0.0,97,0.00,CLR,,0.01,WeatherDisplay:10.37,2013-05-19 05:31:00,
2013-05-19 01:36:00,66.3,65.4,30.12,NE,54,0.0,0.0,97,0.00,CLR,,0.01,WeatherDisplay:10.37,2013-05-19 05:36:00,
2013-05-19 01:41:00,66.4,65.5,30.12,ESE,122,0.0,0.0,97,0.00,CLR,,0.01,WeatherDisplay:10.37,2013-05-19 05:41:00,
2013-05-19 01:46:00,66.3,65.4,30.11,ESE,118,0.0,0.0,97,0.00,CLR,,0.01,WeatherDisplay:10.37,2013-05-19 05:46:00,
2013-05-19 01:51:00,66.3,65.4,30.11,ESE,112,0.0,0.0,97,0.00,CLR,,0.01,WeatherDisplay:10.37,2013-05-19 05:51:00,
2013-05-19 01:56:00,66.3,65.4,30.11,East,94,0.0,0.0,97,0.00,CLR,,0.01,WeatherDisplay:10.37,2013-05-19 05:56:00,
2013-05-19 02:01:00,66.2,65.3,30.11,NNW,344,0.0,0.0,97,0.00,CLR,,0.01,WeatherDisplay:10.37,2013-05-19 06:01:00,
2013-05-19 02:06:00,66.2,65.3,30.11,NNW,344,0.0,0.0,97,0.00,CLR,,0.01,WeatherDisplay:10.37,2013-05-19 06:06:00,
2013-05-19 02:11:00,66.2,65.3,30.11,NNW,347,0.0,0.0,97,0.00,CLR,,0.01,WeatherDisplay:10.37,2013-05-19 06:11:00,
2013-05-19 02:16:00,66.3,65.4,30.11,NNW,346,0.0,0.0,97,0.00,CLR,,0.01,WeatherDisplay:10.37,2013-05-19 06:16:00,
2013-05-19 02:21:00,66.3,65.4,30.11,NNW,347,0.0,0.0,97,0.00,CLR,,0.01,WeatherDisplay:10.37,2013-05-19 06:21:00,
2013-05-19 02:26:00,66.3,65.4,30.11,NNW,347,0.0,0.0,97,0.00,CLR,,0.01,WeatherDisplay:10.37,2013-05-19 06:26:00,
2013-05-19 02:31:00,66.3,65.4,30.11,North,351,0.0,0.0,97,0.00,CLR,,0.01,WeatherDisplay:10.37,2013-05-19 06:31:00,
2013-05-19 02:36:00,66.3,65.4,30.11,North,352,0.0,0.0,97,0.00,CLR,,0.01,WeatherDisplay:10.37,2013-05-19 06:36:00,
2013-05-19 02:41:00,66.3,65.4,30.11,North,351,0.0,0.0,97,0.00,CLR,,0.01,WeatherDisplay:10.37,2013-05-19 06:41:00,
2013-05-19 02:46:00,66.3,65.4,30.11,East,92,0.0,0.0,97,0.00,CLR,,0.01,WeatherDisplay:10.37,2013-05-19 06:46:00,
2013-05-19 02:51:00,66.3,65.4,30.11,East,92,0.0,0.0,97,0.00,CLR,,0.01,WeatherDisplay:10.37,2013-05-19 06:51:00,
2013-05-19 02:56:00,66.3,65.4,30.11,East,92,0.0,0.0,97,0.00,CLR,,0.01,WeatherDisplay:10.37,2013-05-19 06:56:00,
2013-05-19 03:01:00,66.3,65.4,30.11,East,92,0.0,0.0,97,0.00,CLR,,0.01,WeatherDisplay:10.37,2013-05-19 07:01:00,
2013-05-19 03:06:00,66.3,65.4,30.11,East,91,0.0,0.0,97,0.00,CLR,,0.01,WeatherDisplay:10.37,2013-05-19 07:06:00,
2013-05-19 03:11:00,66.3,65.4,30.10,East,92,0.0,0.0,97,0.00,CLR,,0.01,WeatherDisplay:10.37,2013-05-19 07:11:00,
2013-05-19 03:16:00,66.3,65.4,30.10,East,92,0.0,0.0,97,0.00,CLR,,0.01,WeatherDisplay:10.37,2013-05-19 07:16:00,
2013-05-19 03:21:00,66.3,65.4,30.10,East,92,0.0,0.0,97,0.00,CLR,,0.01,WeatherDisplay:10.37,2013-05-19 07:21:00,
2013-05-19 03:26:00,66.3,65.4,30.10,East,92,0.0,0.0,97,0.00,CLR,,0.01,WeatherDisplay:10.37,2013-05-19 07:26:00,
2013-05-19 03:31:00,66.3,65.4,30.10,East,92,0.0,0.0,97,0.00,CLR,,0.01,WeatherDisplay:10.37,2013-05-19 07:31:00,
2013-05-19 03:36:00,66.4,65.5,30.10,East,91,0.0,0.0,97,0.00,CLR,,0.01,WeatherDisplay:10.37,2013-05-19 07:36:00,
2013-05-19 03:41:00,66.4,65.5,30.10,East,91,0.0,0.0,97,0.00,CLR,,0.01,WeatherDisplay:10.37,2013-05-19 07:41:00,
2013-05-19 03:46:00,66.4,65.5,30.10,East,92,0.0,0.0,97,0.00,CLR,,0.01,WeatherDisplay:10.37,2013-05-19 07:46:00,
2013-05-19 03:51:00,66.3,65.4,30.10,East,92,0.0,0.0,97,0.00,CLR,,0.01,WeatherDisplay:10.37,2013-05-19 07:51:00,
2013-05-19 03:56:00,66.3,65.4,30.10,East,92,0.0,0.0,97,0.00,CLR,,0.01,WeatherDisplay:10.37,2013-05-19 07:56:00,
2013-05-19 04:02:00,66.4,65.5,30.10,East,92,0.0,0.0,97,0.00,CLR,,0.01,WeatherDisplay:10.37,2013-05-19 08:02:00,
2013-05-19 04:07:00,66.4,65.5,30.10,East,92,0.0,0.0,97,0.00,CLR,,0.01,WeatherDisplay:10.37,2013-05-19 08:07:00,
2013-05-19 04:12:00,66.4,65.5,30.11,East,91,0.0,0.0,97,0.00,CLR,,0.01,WeatherDisplay:10.37,2013-05-19 08:12:00,
2013-05-19 04:17:00,66.4,65.5,30.11,East,92,0.0,0.0,97,0.00,CLR,,0.01,WeatherDisplay:10.37,2013-05-19 08:17:00,
2013-05-19 04:22:00,66.4,65.5,30.11,East,92,0.0,0.0,97,0.00,CLR,,0.01,WeatherDisplay:10.37,2013-05-19 08:22:00,
2013-05-19 04:27:00,66.4,65.5,30.11,East,91,0.0,0.0,97,0.03,RA,,0.04,WeatherDisplay:10.37,2013-05-19 08:27:00,
2013-05-19 04:32:00,66.5,65.6,30.11,East,92,0.0,0.0,97,0.03,RA,,0.04,WeatherDisplay:10.37,2013-05-19 08:32:00,
2013-05-19 04:37:00,66.4,65.5,30.11,East,91,0.0,0.0,97,0.03,CLR,,0.04,WeatherDisplay:10.37,2013-05-19 08:37:00,
2013-05-19 04:42:00,66.5,65.6,30.11,East,91,0.0,0.0,97,0.03,CLR,,0.04,WeatherDisplay:10.37,2013-05-19 08:42:00,
2013-05-19 04:47:00,66.4,65.5,30.11,East,92,0.0,0.0,97,0.03,CLR,,0.04,WeatherDisplay:10.37,2013-05-19 08:47:00,
2013-05-19 04:52:00,66.4,65.5,30.11,East,92,0.0,0.0,97,0.03,CLR,,0.04,WeatherDisplay:10.37,2013-05-19 08:52:00,
2013-05-19 04:57:00,66.4,65.5,30.11,East,92,0.0,0.0,97,0.03,CLR,,0.04,WeatherDisplay:10.37,2013-05-19 08:57:00,
2013-05-19 05:02:00,66.4,65.5,30.10,East,91,0.0,0.0,97,0.03,CLR,,0.04,WeatherDisplay:10.37,2013-05-19 09:02:00,
2013-05-19 05:07:00,66.4,65.5,30.10,East,92,0.0,0.0,97,0.03,CLR,,0.04,WeatherDisplay:10.37,2013-05-19 09:07:00,
2013-05-19 05:12:00,66.4,65.8,30.10,East,92,0.0,0.0,98,0.03,CLR,,0.04,WeatherDisplay:10.37,2013-05-19 09:12:00,
2013-05-19 05:17:00,66.4,65.8,30.10,East,92,0.0,0.0,98,0.03,CLR,,0.04,WeatherDisplay:10.37,2013-05-19 09:17:00,
2013-05-19 05:22:00,66.4,65.8,30.10,SE,131,0.0,0.0,98,0.03,CLR,,0.04,WeatherDisplay:10.37,2013-05-19 09:22:00,
2013-05-19 05:27:00,66.4,65.8,30.10,SE,131,0.0,0.0,98,0.00,CLR,,0.04,WeatherDisplay:10.37,2013-05-19 09:27:00,
2013-05-19 05:32:00,66.4,65.8,30.11,SE,131,0.0,0.0,98,0.01,RA,,0.05,WeatherDisplay:10.37,2013-05-19 09:32:00,
2013-05-19 05:37:00,66.5,65.9,30.11,SE,132,0.0,0.0,98,0.04,RA,,0.09,WeatherDisplay:10.37,2013-05-19 09:37:00,
2013-05-19 05:42:00,66.4,65.8,30.10,SE,133,0.0,0.0,98,0.07,RA,,0.11,WeatherDisplay:10.37,2013-05-19 09:42:00,
2013-05-19 05:47:00,66.5,65.9,30.10,ENE,75,0.0,0.0,98,0.10,RA,,0.14,WeatherDisplay:10.37,2013-05-19 09:47:00,
2013-05-19 05:52:00,66.5,65.9,30.10,ENE,76,0.0,0.0,98,0.10,RA,,0.14,WeatherDisplay:10.37,2013-05-19 09:52:00,
2013-05-19 05:57:00,66.5,65.9,30.11,SSE,153,0.0,0.0,98,0.10,,,0.14,WeatherDisplay:10.37,2013-05-19 09:57:00,
2013-05-19 06:02:00,66.5,65.9,30.11,SSE,153,0.0,0.0,98,0.10,CLR,,0.14,WeatherDisplay:10.37,2013-05-19 10:02:00,
2013-05-19 06:07:00,66.5,65.9,30.11,SSE,153,0.0,0.0,98,0.10,CLR,,0.14,WeatherDisplay:10.37,2013-05-19 10:07:00,
2013-05-19 06:12:00,66.5,65.9,30.11,SSE,153,0.0,0.0,98,0.10,CLR,,0.14,WeatherDisplay:10.37,2013-05-19 10:12:00,
2013-05-19 06:17:00,66.4,65.8,30.12,SSE,153,0.0,0.0,98,0.10,CLR,,0.14,WeatherDisplay:10.37,2013-05-19 10:17:00,
2013-05-19 06:22:00,66.4,65.8,30.12,SSW,194,0.0,0.0,98,0.10,CLR,,0.14,WeatherDisplay:10.37,2013-05-19 10:22:00,
2013-05-19 06:27:00,66.4,65.8,30.12,SSW,194,0.0,0.0,98,0.10,CLR,,0.14,WeatherDisplay:10.37,2013-05-19 10:27:00,
2013-05-19 06:32:00,66.4,65.8,30.12,SSW,194,0.0,0.0,98,0.09,CLR,,0.14,WeatherDisplay:10.37,2013-05-19 10:32:00,
2013-05-19 06:37:00,66.3,65.7,30.12,SSW,194,0.0,0.0,98,0.06,CLR,,0.14,WeatherDisplay:10.37,2013-05-19 10:37:00,
2013-05-19 06:42:00,66.3,65.7,30.12,SSW,194,0.0,0.0,98,0.03,CLR,,0.14,WeatherDisplay:10.37,2013-05-19 10:42:00,
2013-05-19 06:47:00,66.3,65.7,30.12,South,191,0.0,0.0,98,0.00,CLR,,0.14,WeatherDisplay:10.37,2013-05-19 10:47:00,
2013-05-19 06:52:00,66.3,65.7,30.12,South,191,0.0,0.0,98,0.00,CLR,,0.14,WeatherDisplay:10.37,2013-05-19 10:52:00,
2013-05-19 06:57:00,66.4,65.8,30.12,South,191,0.0,0.0,98,0.00,CLR,,0.14,WeatherDisplay:10.37,2013-05-19 10:57:00,
2013-05-19 07:02:00,66.5,65.9,30.12,South,191,0.0,0.0,98,0.00,CLR,,0.14,WeatherDisplay:10.37,2013-05-19 11:02:00,
2013-05-19 07:07:00,66.6,66.0,30.12,SSE,163,0.0,0.0,98,0.00,CLR,,0.14,WeatherDisplay:10.37,2013-05-19 11:07:00,
2013-05-19 07:12:00,66.7,66.1,30.12,SE,145,1.1,0.0,98,0.00,CLR,,0.14,WeatherDisplay:10.37,2013-05-19 11:12:00,
2013-05-19 07:17:00,66.8,66.2,30.12,SE,146,0.0,0.0,98,0.00,CLR,,0.14,WeatherDisplay:10.37,2013-05-19 11:17:00,
2013-05-19 07:22:00,66.8,66.2,30.13,ESE,107,0.0,0.0,98,0.00,CLR,,0.14,WeatherDisplay:10.37,2013-05-19 11:22:00,
2013-05-19 07:27:00,66.9,66.3,30.12,ESE,107,1.1,0.0,98,0.00,CLR,,0.14,WeatherDisplay:10.37,2013-05-19 11:27:00,
2013-05-19 07:32:00,67.0,66.4,30.13,ESE,107,0.0,0.0,98,0.00,CLR,,0.14,WeatherDisplay:10.37,2013-05-19 11:32:00,
2013-05-19 07:37:00,67.0,66.4,30.13,ESE,110,0.0,0.0,98,0.00,CLR,,0.14,WeatherDisplay:10.37,2013-05-19 11:37:00,
2013-05-19 07:42:00,67.1,66.5,30.13,ESE,110,1.0,0.0,98,0.00,CLR,,0.14,WeatherDisplay:10.37,2013-05-19 11:42:00,
2013-05-19 07:47:00,67.1,66.5,30.13,ESE,108,2.3,2.3,98,0.00,CLR,,0.14,WeatherDisplay:10.37,2013-05-19 11:47:00,
2013-05-19 07:52:00,67.3,66.7,30.13,ESE,108,0.0,0.0,98,0.00,CLR,,0.14,WeatherDisplay:10.37,2013-05-19 11:52:00,
2013-05-19 07:57:00,67.3,66.7,30.13,SE,124,1.1,0.0,98,0.00,CLR,,0.14,WeatherDisplay:10.37,2013-05-19 11:57:00,
2013-05-19 08:02:00,67.4,66.8,30.13,SE,130,0.0,0.0,98,0.00,CLR,,0.14,WeatherDisplay:10.37,2013-05-19 12:02:00,
2013-05-19 08:07:00,67.5,66.9,30.13,SSE,155,1.1,0.0,98,0.00,CLR,,0.14,WeatherDisplay:10.37,2013-05-19 12:07:00,
2013-05-19 08:12:00,67.6,67.0,30.13,SE,141,0.0,0.0,98,0.00,CLR,,0.14,WeatherDisplay:10.37,2013-05-19 12:12:00,
2013-05-19 08:17:00,67.8,67.2,30.13,SE,132,0.0,0.0,98,0.00,CLR,,0.14,WeatherDisplay:10.37,2013-05-19 12:17:00,
2013-05-19 08:22:00,67.9,67.3,30.13,SE,133,0.0,0.0,98,0.00,CLR,,0.14,WeatherDisplay:10.37,2013-05-19 12:22:00,
2013-05-19 08:27:00,68.1,67.5,30.13,SE,132,0.0,0.0,98,0.00,CLR,,0.14,WeatherDisplay:10.37,2013-05-19 12:27:00,
2013-05-19 08:32:00,68.3,67.7,30.13,SE,132,0.0,0.0,98,0.00,CLR,,0.14,WeatherDisplay:10.37,2013-05-19 12:32:00,
2013-05-19 08:37:00,68.3,67.7,30.13,WSW,255,0.0,0.0,98,0.00,CLR,,0.14,WeatherDisplay:10.37,2013-05-19 12:37:00,
2013-05-19 08:42:00,68.4,67.8,30.13,SE,132,0.0,0.0,98,0.00,CLR,,0.14,WeatherDisplay:10.37,2013-05-19 12:42:00,
2013-05-19 08:47:00,68.4,67.5,30.14,SE,138,0.0,0.0,97,0.00,CLR,,0.14,WeatherDisplay:10.37,2013-05-19 12:47:00,
2013-05-19 08:52:00,68.5,67.6,30.14,ESE,114,0.0,0.0,97,0.00,CLR,,0.14,WeatherDisplay:10.37,2013-05-19 12:52:00,
2013-05-19 08:57:00,68.6,67.7,30.14,SSE,162,0.0,0.0,97,0.00,CLR,,0.14,WeatherDisplay:10.37,2013-05-19 12:57:00,
2013-05-19 09:02:00,68.8,67.9,30.14,South,176,0.0,0.0,97,0.00,CLR,,0.14,WeatherDisplay:10.37,2013-05-19 13:02:00,
2013-05-19 09:07:00,69.0,68.1,30.14,South,174,0.0,0.0,97,0.00,CLR,,0.14,WeatherDisplay:10.37,2013-05-19 13:07:00,
2013-05-19 09:12:00,69.1,68.2,30.14,ESE,114,0.0,0.0,97,0.00,CLR,,0.14,WeatherDisplay:10.37,2013-05-19 13:12:00,
2013-05-19 09:17:00,69.3,68.4,30.14,ESE,103,0.0,0.0,97,0.00,CLR,,0.14,WeatherDisplay:10.37,2013-05-19 13:17:00,
2013-05-19 09:22:00,69.6,68.7,30.14,ESE,103,0.0,0.0,97,0.00,CLR,,0.14,WeatherDisplay:10.37,2013-05-19 13:22:00,
2013-05-19 09:27:00,69.7,68.8,30.15,ESE,103,0.0,0.0,97,0.00,CLR,,0.14,WeatherDisplay:10.37,2013-05-19 13:27:00,
2013-05-19 09:32:00,69.9,69.0,30.15,ESE,103,0.0,0.0,97,0.00,CLR,,0.14,WeatherDisplay:10.37,2013-05-19 13:32:00,
2013-05-19 09:37:00,69.9,68.7,30.15,ESE,113,0.0,0.0,96,0.00,CLR,,0.14,WeatherDisplay:10.37,2013-05-19 13:37:00,
2013-05-19 09:42:00,70.0,68.8,30.14,SE,136,0.0,0.0,96,0.00,CLR,,0.14,WeatherDisplay:10.37,2013-05-19 13:42:00,
2013-05-19 09:48:00,70.1,68.9,30.14,SSE,149,0.0,0.0,96,0.00,CLR,,0.14,WeatherDisplay:10.37,2013-05-19 13:48:00,
2013-05-19 09:53:00,70.3,69.1,30.14,ESE,114,0.0,0.0,96,0.00,CLR,,0.14,WeatherDisplay:10.37,2013-05-19 13:53:00,
2013-05-19 09:58:00,70.5,69.0,30.15,SW,217,2.3,2.3,95,0.00,CLR,,0.14,WeatherDisplay:10.37,2013-05-19 13:58:00,
2013-05-19 10:03:00,70.8,69.3,30.14,East,94,0.0,0.0,95,0.00,CLR,,0.14,WeatherDisplay:10.37,2013-05-19 14:03:00,
2013-05-19 10:08:00,71.2,69.7,30.14,East,94,0.0,0.0,95,0.00,CLR,,0.14,WeatherDisplay:10.37,2013-05-19 14:08:00,
2013-05-19 10:13:00,71.6,70.1,30.14,ENE,64,1.1,1.1,95,0.00,CLR,,0.14,WeatherDisplay:10.37,2013-05-19 14:13:00,
2013-05-19 10:18:00,71.8,70.0,30.14,SE,142,1.1,0.0,94,0.00,CLR,,0.14,WeatherDisplay:10.37,2013-05-19 14:18:00,
2013-05-19 10:23:00,72.0,69.9,30.14,SE,141,1.1,1.1,93,0.00,CLR,,0.14,WeatherDisplay:10.37,2013-05-19 14:23:00,
2013-05-19 10:28:00,72.2,70.1,30.14,WNW,290,0.0,0.0,93,0.00,CLR,,0.14,WeatherDisplay:10.37,2013-05-19 14:28:00,
2013-05-19 10:33:00,72.3,69.8,30.14,NE,44,2.0,2.0,92,0.00,CLR,,0.14,WeatherDisplay:10.37,2013-05-19 14:33:00,
2013-05-19 10:38:00,72.5,70.0,30.14,East,91,1.1,1.1,92,0.00,CLR,,0.14,WeatherDisplay:10.37,2013-05-19 14:38:00,
2013-05-19 10:43:00,72.8,70.3,30.14,WSW,243,0.0,0.0,92,0.00,CLR,,0.14,WeatherDisplay:10.37,2013-05-19 14:43:00,
2013-05-19 10:48:00,73.1,70.3,30.14,West,271,2.3,2.3,91,0.00,CLR,,0.14,WeatherDisplay:10.37,2013-05-19 14:48:00,
2013-05-19 10:53:00,73.6,71.1,30.14,SSW,200,0.0,0.0,92,0.00,CLR,,0.14,WeatherDisplay:10.37,2013-05-19 14:53:00,
2013-05-19 10:58:00,74.3,71.2,30.14,WSW,250,1.1,0.0,90,0.00,CLR,,0.14,WeatherDisplay:10.37,2013-05-19 14:58:00,
2013-05-19 11:03:00,74.5,71.4,30.14,North,351,0.0,0.0,90,0.00,CLR,,0.14,WeatherDisplay:10.37,2013-05-19 15:03:00,
2013-05-19 11:08:00,74.9,71.1,30.14,SW,224,0.0,0.0,88,0.00,CLR,,0.14,WeatherDisplay:10.37,2013-05-19 15:08:00,
2013-05-19 11:13:00,75.7,71.2,30.14,East,82,2.3,2.3,86,0.00,CLR,,0.14,WeatherDisplay:10.37,2013-05-19 15:13:00,
2013-05-19 11:18:00,76.2,71.4,30.14,East,94,3.5,3.5,85,0.00,CLR,,0.14,WeatherDisplay:10.37,2013-05-19 15:18:00,
2013-05-19 11:23:00,76.2,71.0,30.14,SSE,153,0.0,0.0,84,0.00,CLR,,0.14,WeatherDisplay:10.37,2013-05-19 15:23:00,
2013-05-19 11:28:00,76.7,71.8,30.13,SE,135,1.1,1.1,85,0.00,CLR,,0.14,WeatherDisplay:10.37,2013-05-19 15:28:00,
2013-05-19 11:33:00,77.3,72.1,30.13,East,81,3.0,3.0,84,0.00,CLR,,0.14,WeatherDisplay:10.37,2013-05-19 15:33:00,
2013-05-19 11:38:00,77.5,70.8,30.13,WSW,243,3.5,3.5,80,0.00,CLR,,0.14,WeatherDisplay:10.37,2013-05-19 15:38:00,
2013-05-19 11:43:00,77.4,71.1,30.13,ESE,113,2.3,2.3,81,0.00,CLR,,0.14,WeatherDisplay:10.37,2013-05-19 15:43:00,
2013-05-19 11:48:00,78.2,72.6,30.13,West,264,1.1,0.0,83,0.00,CLR,,0.14,WeatherDisplay:10.37,2013-05-19 15:48:00,
2013-05-19 11:53:00,79.1,71.6,30.13,ENE,65,2.3,0.0,78,0.00,CLR,,0.14,WeatherDisplay:10.37,2013-05-19 15:53:00,
2013-05-19 11:58:00,79.2,71.4,30.12,SSW,207,1.1,1.1,77,0.00,CLR,,0.14,WeatherDisplay:10.37,2013-05-19 15:58:00,
2013-05-19 12:03:00,79.3,71.5,30.12,SE,143,3.5,3.5,77,0.00,CLR,,0.14,WeatherDisplay:10.37,2013-05-19 16:03:00,
2013-05-19 12:08:00,79.5,71.7,30.12,SE,136,3.5,3.5,77,0.00,CLR,,0.14,WeatherDisplay:10.37,2013-05-19 16:08:00,
2013-05-19 12:13:00,79.7,72.2,30.12,SW,219,1.1,1.6,78,0.00,CLR,,0.14,WeatherDisplay:10.37,2013-05-19 16:13:00,
2013-05-19 12:18:00,79.8,70.8,30.12,SSW,192,2.3,2.3,74,0.00,CLR,,0.14,WeatherDisplay:10.37,2013-05-19 16:18:00,
2013-05-19 12:23:00,79.9,71.7,30.12,SE,143,2.0,2.0,76,0.00,CLR,,0.14,WeatherDisplay:10.37,2013-05-19 16:23:00,
2013-05-19 12:28:00,79.5,70.5,30.12,East,96,2.3,2.3,74,0.00,CLR,,0.14,WeatherDisplay:10.37,2013-05-19 16:28:00,
2013-05-19 12:33:00,78.9,70.7,30.12,East,92,3.5,3.5,76,0.00,CLR,,0.14,WeatherDisplay:10.37,2013-05-19 16:33:00,
2013-05-19 12:38:00,78.4,71.0,30.11,South,180,0.0,0.0,78,0.00,CLR,,0.14,WeatherDisplay:10.37,2013-05-19 16:38:00,
2013-05-19 12:43:00,78.3,70.9,30.11,SE,137,3.5,3.5,78,0.00,CLR,,0.15,WeatherDisplay:10.37,2013-05-19 16:43:00,
2013-05-19 12:48:00,77.9,71.2,30.11,ESE,110,1.1,0.0,80,0.01,RA,,0.15,WeatherDisplay:10.37,2013-05-19 16:48:00,
2013-05-19 12:53:00,77.7,71.8,30.10,SW,214,0.0,0.0,82,0.01,RA,,0.15,WeatherDisplay:10.37,2013-05-19 16:53:00,
2013-05-19 12:58:00,77.4,70.7,30.10,WNW,294,0.0,0.0,80,0.01,CLR,,0.15,WeatherDisplay:10.37,2013-05-19 16:58:00,
2013-05-19 13:03:00,77.4,71.5,30.10,East,96,1.1,0.0,82,0.01,CLR,,0.15,WeatherDisplay:10.37,2013-05-19 17:03:00,
2013-05-19 13:08:00,77.6,71.3,30.10,ESE,108,2.3,2.3,81,0.01,CLR,,0.15,WeatherDisplay:10.37,2013-05-19 17:08:00,
2013-05-19 13:13:00,78.3,71.6,30.09,SE,131,3.0,3.0,80,0.01,CLR,,0.15,WeatherDisplay:10.37,2013-05-19 17:13:00,
2013-05-19 13:18:00,79.0,70.4,30.09,ESE,110,4.6,4.6,75,0.01,CLR,,0.15,WeatherDisplay:10.37,2013-05-19 17:18:00,
2013-05-19 13:23:00,80.3,71.3,30.09,SW,235,2.3,2.3,74,0.01,CLR,,0.15,WeatherDisplay:10.37,2013-05-19 17:23:00,
2013-05-19 13:28:00,79.0,66.7,30.11,SW,226,9.2,9.2,66,0.01,CLR,,0.15,WeatherDisplay:10.37,2013-05-19 17:28:00,
2013-05-19 13:33:00,75.7,66.8,30.11,SW,214,2.3,2.3,74,0.01,CLR,,0.15,WeatherDisplay:10.37,2013-05-19 17:33:00,
2013-05-19 13:38:00,73.2,67.0,30.11,SSW,208,3.5,3.5,81,0.03,RA,,0.18,WeatherDisplay:10.37,2013-05-19 17:38:00,
2013-05-19 13:43:00,71.6,67.2,30.11,SSE,165,2.3,0.0,86,0.07,RA,,0.21,WeatherDisplay:10.37,2013-05-19 17:43:00,
2013-05-19 13:48:00,70.5,66.8,30.11,SW,235,1.1,1.1,88,0.08,RA,,0.23,WeatherDisplay:10.37,2013-05-19 17:48:00,
2013-05-19 13:53:00,69.8,66.4,30.11,SW,225,4.0,4.0,89,0.09,RA,,0.24,WeatherDisplay:10.37,2013-05-19 17:53:00,
2013-05-19 13:58:00,69.4,66.7,30.11,SSW,193,2.3,2.3,91,0.10,RA,,0.25,WeatherDisplay:10.37,2013-05-19 17:58:00,
2013-05-19 14:03:00,69.1,66.7,30.11,SE,139,0.0,0.0,92,0.11,RA,,0.26,WeatherDisplay:10.37,2013-05-19 18:03:00,
2013-05-19 14:08:00,68.9,66.5,30.11,NE,36,0.0,0.0,92,0.12,RA,,0.27,WeatherDisplay:10.37,2013-05-19 18:08:00,
2013-05-19 14:13:00,68.8,66.7,30.10,ENE,75,0.0,0.0,93,0.13,RA,,0.28,WeatherDisplay:10.37,2013-05-19 18:13:00,
2013-05-19 14:18:00,68.8,66.7,30.10,ENE,75,0.0,0.0,93,0.13,RA,,0.28,WeatherDisplay:10.37,2013-05-19 18:18:00,
2013-05-19 14:23:00,68.8,66.7,30.10,ENE,75,0.0,0.0,93,0.14,RA,,0.29,WeatherDisplay:10.37,2013-05-19 18:23:00,
2013-05-19 14:28:00,68.7,66.6,30.10,East,100,0.0,0.0,93,0.15,RA,,0.30,WeatherDisplay:10.37,2013-05-19 18:28:00,
2013-05-19 14:33:00,68.8,67.0,30.10,SE,142,0.0,0.0,94,0.15,RA,,0.30,WeatherDisplay:10.37,2013-05-19 18:33:00,
2013-05-19 14:38:00,68.7,66.9,30.10,East,79,0.0,0.0,94,0.14,RA,,0.31,WeatherDisplay:10.37,2013-05-19 18:38:00,
2013-05-19 14:43:00,68.7,66.9,30.10,SE,129,0.0,0.0,94,0.10,RA,,0.31,WeatherDisplay:10.37,2013-05-19 18:43:00,
2013-05-19 14:48:00,68.8,67.0,30.09,East,99,1.0,0.0,94,0.08,CLR,,0.31,WeatherDisplay:10.37,2013-05-19 18:48:00,
2013-05-19 14:53:00,68.8,67.0,30.09,ESE,106,1.1,1.1,94,0.07,CLR,,0.31,WeatherDisplay:10.37,2013-05-19 18:53:00,
2013-05-19 14:58:00,68.9,67.1,30.09,ESE,105,0.0,0.0,94,0.06,CLR,,0.31,WeatherDisplay:10.37,2013-05-19 18:58:00,
2013-05-19 15:03:00,69.2,67.4,30.09,ESE,102,0.0,0.0,94,0.05,CLR,,0.31,WeatherDisplay:10.37,2013-05-19 19:03:00,
2013-05-19 15:08:00,69.7,67.9,30.09,South,170,0.0,0.0,94,0.04,CLR,,0.31,WeatherDisplay:10.37,2013-05-19 19:08:00,
2013-05-19 15:13:00,70.1,68.3,30.09,East,100,0.0,0.0,94,0.03,CLR,,0.31,WeatherDisplay:10.37,2013-05-19 19:13:00,
2013-05-19 15:18:00,70.5,68.4,30.09,SSE,163,2.3,2.3,93,0.03,CLR,,0.31,WeatherDisplay:10.37,2013-05-19 19:18:00,
2013-05-19 15:24:00,71.2,69.1,30.08,South,171,1.1,1.1,93,0.02,CLR,,0.31,WeatherDisplay:10.37,2013-05-19 19:24:00,
2013-05-19 15:29:00,72.2,70.1,30.08,East,98,1.1,1.1,93,0.01,CLR,,0.31,WeatherDisplay:10.37,2013-05-19 19:29:00,
2013-05-19 15:34:00,73.0,70.2,30.07,East,97,0.0,0.0,91,0.01,CLR,,0.31,WeatherDisplay:10.37,2013-05-19 19:34:00,
2013-05-19 15:39:00,73.8,70.7,30.07,SE,125,1.1,0.0,90,0.00,CLR,,0.31,WeatherDisplay:10.37,2013-05-19 19:39:00,
2013-05-19 15:44:00,74.9,71.1,30.07,West,271,1.1,1.1,88,0.00,CLR,,0.31,WeatherDisplay:10.37,2013-05-19 19:44:00,
2013-05-19 15:49:00,76.3,71.5,30.07,ESE,103,2.3,2.3,85,0.00,CLR,,0.31,WeatherDisplay:10.37,2013-05-19 19:49:00,
2013-05-19 15:54:00,77.6,72.4,30.06,SSW,194,0.0,0.0,84,0.00,CLR,,0.31,WeatherDisplay:10.37,2013-05-19 19:54:00,
2013-05-19 15:59:00,78.3,71.6,30.06,SW,219,3.5,3.5,80,0.00,CLR,,0.31,WeatherDisplay:10.37,2013-05-19 19:59:00,
2013-05-19 16:04:00,78.9,71.5,30.06,SE,131,3.5,3.5,78,0.00,CLR,,0.31,WeatherDisplay:10.37,2013-05-19 20:04:00,
2013-05-19 16:09:00,79.6,71.8,30.06,East,86,3.5,3.5,77,0.00,CLR,,0.31,WeatherDisplay:10.37,2013-05-19 20:09:00,
2013-05-19 16:14:00,80.1,71.5,30.06,South,191,3.5,3.5,75,0.00,CLR,,0.31,WeatherDisplay:10.37,2013-05-19 20:14:00,
2013-05-19 16:19:00,79.7,71.1,30.06,SSW,193,2.3,2.3,75,0.00,CLR,,0.31,WeatherDisplay:10.37,2013-05-19 20:19:00,
2013-05-19 16:24:00,79.3,70.7,30.06,SE,137,1.1,1.1,75,0.00,CLR,,0.31,WeatherDisplay:10.37,2013-05-19 20:24:00,
2013-05-19 16:29:00,78.5,69.9,30.06,ENE,74,2.3,2.3,75,0.00,CLR,,0.31,WeatherDisplay:10.37,2013-05-19 20:29:00,
2013-05-19 16:34:00,78.1,69.9,30.06,SE,131,2.3,2.3,76,0.00,CLR,,0.31,WeatherDisplay:10.37,2013-05-19 20:34:00,
2013-05-19 16:39:00,78.2,70.4,30.06,ESE,105,1.1,0.0,77,0.00,CLR,,0.31,WeatherDisplay:10.37,2013-05-19 20:39:00,
2013-05-19 16:44:00,78.0,70.2,30.06,SE,135,2.3,2.3,77,0.00,CLR,,0.31,WeatherDisplay:10.37,2013-05-19 20:44:00,
2013-05-19 16:49:00,77.9,70.9,30.06,SE,143,0.0,0.0,79,0.00,CLR,,0.31,WeatherDisplay:10.37,2013-05-19 20:49:00,
2013-05-19 16:54:00,77.7,69.9,30.07,East,94,5.0,5.0,77,0.00,CLR,,0.31,WeatherDisplay:10.37,2013-05-19 20:54:00,
2013-05-19 16:59:00,77.4,69.6,30.07,ESE,121,2.3,2.3,77,0.00,CLR,,0.31,WeatherDisplay:10.37,2013-05-19 20:59:00,
2013-05-19 17:04:00,77.1,69.7,30.06,NNW,342,2.3,2.3,78,0.00,CLR,,0.31,WeatherDisplay:10.37,2013-05-19 21:04:00,
2013-05-19 17:09:00,76.9,69.9,30.06,ENE,72,3.5,3.5,79,0.00,CLR,,0.31,WeatherDisplay:10.37,2013-05-19 21:09:00,
2013-05-19 17:14:00,76.8,69.8,30.06,South,173,2.3,2.3,79,0.00,CLR,,0.31,WeatherDisplay:10.37,2013-05-19 21:14:00,
2013-05-19 17:19:00,77.0,70.4,30.06,South,184,2.0,2.0,80,0.00,CLR,,0.31,WeatherDisplay:10.37,2013-05-19 21:19:00,
2013-05-19 17:24:00,76.8,69.4,30.06,NE,49,3.5,3.5,78,0.00,CLR,,0.31,WeatherDisplay:10.37,2013-05-19 21:24:00,
2013-05-19 17:29:00,76.6,69.6,30.06,South,169,3.5,3.5,79,0.00,CLR,,0.31,WeatherDisplay:10.37,2013-05-19 21:29:00,
2013-05-19 17:34:00,76.5,69.5,30.05,East,96,3.5,3.5,79,0.00,CLR,,0.31,WeatherDisplay:10.37,2013-05-19 21:34:00,
2013-05-19 17:39:00,76.3,69.7,30.05,SSE,167,2.3,2.3,80,0.00,CLR,,0.31,WeatherDisplay:10.37,2013-05-19 21:39:00,
2013-05-19 17:44:00,76.2,69.9,30.05,ESE,106,1.1,1.1,81,0.00,CLR,,0.31,WeatherDisplay:10.37,2013-05-19 21:44:00,
2013-05-19 17:49:00,75.9,69.3,30.06,WSW,240,3.5,3.5,80,0.00,CLR,,0.31,WeatherDisplay:10.37,2013-05-19 21:49:00,
2013-05-19 17:54:00,75.5,69.6,30.06,SE,139,2.3,2.3,82,0.00,CLR,,0.31,WeatherDisplay:10.37,2013-05-19 21:54:00,
2013-05-19 17:59:00,75.2,69.7,30.06,East,101,2.3,2.3,83,0.00,CLR,,0.31,WeatherDisplay:10.37,2013-05-19 21:59:00,
2013-05-19 18:04:00,75.0,69.5,30.06,SSE,155,2.3,2.3,83,0.00,CLR,,0.31,WeatherDisplay:10.37,2013-05-19 22:04:00,
2013-05-19 18:09:00,74.7,69.5,30.06,SE,131,2.3,2.3,84,0.00,CLR,,0.31,WeatherDisplay:10.37,2013-05-19 22:09:00,
2013-05-19 18:14:00,74.6,69.4,30.05,SE,134,1.1,1.1,84,0.00,CLR,,0.31,WeatherDisplay:10.37,2013-05-19 22:14:00,
2013-05-19 18:19:00,74.6,69.8,30.05,SE,134,3.5,3.5,85,0.00,CLR,,0.31,WeatherDisplay:10.37,2013-05-19 22:19:00,
2013-05-19 18:24:00,74.5,69.7,30.05,SE,142,0.0,0.0,85,0.00,CLR,,0.31,WeatherDisplay:10.37,2013-05-19 22:24:00,
2013-05-19 18:29:00,74.6,69.8,30.05,ESE,111,0.0,0.0,85,0.00,CLR,,0.31,WeatherDisplay:10.37,2013-05-19 22:29:00,
2013-05-19 18:34:00,74.6,70.1,30.05,ESE,113,0.0,0.0,86,0.00,CLR,,0.31,WeatherDisplay:10.37,2013-05-19 22:34:00,
2013-05-19 18:39:00,74.5,70.0,30.05,SE,141,2.3,2.3,86,0.00,CLR,,0.31,WeatherDisplay:10.37,2013-05-19 22:39:00,
2013-05-19 18:44:00,74.5,70.0,30.06,ESE,113,2.3,2.3,86,0.00,CLR,,0.31,WeatherDisplay:10.37,2013-05-19 22:44:00,
2013-05-19 18:49:00,74.4,69.9,30.06,SE,125,1.1,0.0,86,0.00,CLR,,0.31,WeatherDisplay:10.37,2013-05-19 22:49:00,
2013-05-19 18:54:00,74.4,69.9,30.06,SSE,160,1.1,1.1,86,0.00,CLR,,0.31,WeatherDisplay:10.37,2013-05-19 22:54:00,
2013-05-19 18:59:00,74.3,69.8,30.06,NE,39,1.1,1.1,86,0.00,CLR,,0.31,WeatherDisplay:10.37,2013-05-19 22:59:00,
2013-05-19 19:04:00,74.2,69.4,30.06,NE,56,1.1,1.1,85,0.00,CLR,,0.31,WeatherDisplay:10.37,2013-05-19 23:04:00,
2013-05-19 19:09:00,74.1,69.6,30.06,SE,131,0.0,0.0,86,0.00,CLR,,0.31,WeatherDisplay:10.37,2013-05-19 23:09:00,
2013-05-19 19:14:00,74.0,69.5,30.06,SSE,153,2.3,2.8,86,0.00,CLR,,0.31,WeatherDisplay:10.37,2013-05-19 23:14:00,
2013-05-19 19:19:00,73.8,69.3,30.06,SE,134,0.0,0.4,86,0.00,CLR,,0.31,WeatherDisplay:10.37,2013-05-19 23:19:00,
2013-05-19 19:24:00,73.7,69.2,30.06,ESE,113,0.0,0.0,86,0.00,CLR,,0.31,WeatherDisplay:10.37,2013-05-19 23:24:00,
2013-05-19 19:29:00,73.6,69.2,30.06,ESE,113,0.0,0.0,86,0.00,CLR,,0.31,WeatherDisplay:10.37,2013-05-19 23:29:00,
2013-05-19 19:34:00,73.5,69.4,30.06,ESE,123,0.0,0.0,87,0.00,CLR,,0.31,WeatherDisplay:10.37,2013-05-19 23:34:00,
2013-05-19 19:39:00,73.4,69.3,30.06,SE,136,0.0,0.4,87,0.00,CLR,,0.31,WeatherDisplay:10.37,2013-05-19 23:39:00,
2013-05-19 19:44:00,73.2,69.1,30.06,ESE,110,2.0,2.0,87,0.00,CLR,,0.31,WeatherDisplay:10.37,2013-05-19 23:44:00,
2013-05-19 19:49:00,73.0,68.9,30.06,East,100,4.6,4.6,87,0.00,CLR,,0.31,WeatherDisplay:10.37,2013-05-19 23:49:00,
2013-05-19 19:54:00,72.7,68.6,30.07,East,100,5.8,5.8,87,0.00,CLR,,0.31,WeatherDisplay:10.37,2013-05-19 23:54:00,
2013-05-19 19:59:00,72.4,68.0,30.07,SSW,210,8.1,8.1,86,0.00,CLR,,0.31,WeatherDisplay:10.37,2013-05-19 23:59:00,
2013-05-19 20:04:00,72.1,67.7,30.07,SSE,160,4.6,4.6,86,0.00,CLR,,0.31,WeatherDisplay:10.37,2013-05-20 00:04:00,
2013-05-19 20:09:00,71.7,67.3,30.08,South,172,3.5,3.5,86,0.00,CLR,,0.31,WeatherDisplay:10.37,2013-05-20 00:09:00,
2013-05-19 20:14:00,71.5,67.4,30.08,SW,228,2.3,2.3,87,0.00,CLR,,0.31,WeatherDisplay:10.37,2013-05-20 00:14:00,
2013-05-19 20:19:00,71.2,67.1,30.09,SW,225,1.0,1.0,87,0.00,CLR,,0.31,WeatherDisplay:10.37,2013-05-20 00:19:00,
2013-05-19 20:24:00,71.0,67.3,30.09,West,269,1.1,1.1,88,0.00,CLR,,0.31,WeatherDisplay:10.37,2013-05-20 00:24:00,
2013-05-19 20:29:00,70.8,67.4,30.09,WSW,253,2.3,2.3,89,0.00,CLR,,0.31,WeatherDisplay:10.37,2013-05-20 00:29:00,
2013-05-19 20:34:00,70.2,67.1,30.09,ENE,65,1.1,1.1,90,0.01,RA,,0.32,WeatherDisplay:10.37,2013-05-20 00:34:00,
2013-05-19 20:39:00,69.7,66.6,30.09,NNW,333,3.5,3.5,90,0.01,RA,,0.32,WeatherDisplay:10.37,2013-05-20 00:39:00,
2013-05-19 20:44:00,69.2,66.5,30.09,ESE,114,2.3,2.3,91,0.02,RA,,0.33,WeatherDisplay:10.37,2013-05-20 00:44:00,
2013-05-19 20:49:00,68.8,66.4,30.09,West,260,3.5,3.5,92,0.02,RA,,0.33,WeatherDisplay:10.37,2013-05-20 00:49:00,
2013-05-19 20:54:00,68.4,66.3,30.09,NW,322,1.1,1.1,93,0.02,,,0.33,WeatherDisplay:10.37,2013-05-20 00:54:00,
2013-05-19 20:59:00,68.2,66.1,30.09,SW,218,0.0,0.0,93,0.03,RA,,0.34,WeatherDisplay:10.37,2013-05-20 00:59:00,
2013-05-19 21:04:00,68.1,66.3,30.09,ESE,102,0.0,0.0,94,0.03,RA,,0.34,WeatherDisplay:10.37,2013-05-20 01:04:00,
2013-05-19 21:10:00,67.9,66.1,30.09,NNE,27,1.1,1.1,94,0.03,CLR,,0.34,WeatherDisplay:10.37,2013-05-20 01:10:00,
2013-05-19 21:15:00,67.8,66.0,30.10,North,1,2.3,2.3,94,0.04,RA,,0.35,WeatherDisplay:10.37,2013-05-20 01:15:00,
2013-05-19 21:20:00,67.8,66.0,30.10,SSE,156,0.0,0.0,94,0.04,RA,,0.35,WeatherDisplay:10.37,2013-05-20 01:20:00,
2013-05-19 21:25:00,67.7,66.2,30.10,ESE,123,1.1,1.1,95,0.05,RA,,0.36,WeatherDisplay:10.37,2013-05-20 01:25:00,
2013-05-19 21:30:00,67.7,66.2,30.10,SE,140,0.0,0.0,95,0.05,RA,,0.36,WeatherDisplay:10.37,2013-05-20 01:30:00,
2013-05-19 21:35:00,67.6,66.1,30.11,SE,145,1.1,0.0,95,0.04,,,0.36,WeatherDisplay:10.37,2013-05-20 01:35:00,
2013-05-19 21:40:00,67.5,66.0,30.11,SSE,165,2.3,2.3,95,0.04,CLR,,0.36,WeatherDisplay:10.37,2013-05-20 01:40:00,
2013-05-19 21:45:00,67.5,66.0,30.11,SE,135,1.1,0.0,95,0.04,RA,,0.37,WeatherDisplay:10.37,2013-05-20 01:45:00,
2013-05-19 21:50:00,67.4,65.9,30.11,SE,135,1.0,0.0,95,0.04,RA,,0.37,WeatherDisplay:10.37,2013-05-20 01:50:00,
2013-05-19 21:55:00,67.4,66.2,30.11,SE,136,0.0,0.0,96,0.04,CLR,,0.37,WeatherDisplay:10.37,2013-05-20 01:55:00,
2013-05-19 22:00:00,67.3,66.1,30.11,SE,135,0.0,0.0,96,0.03,CLR,,0.37,WeatherDisplay:10.37,2013-05-20 02:00:00,
2013-05-19 22:05:00,67.3,66.1,30.11,SE,135,0.0,0.0,96,0.03,CLR,,0.37,WeatherDisplay:10.37,2013-05-20 02:05:00,
2013-05-19 22:10:00,67.2,66.0,30.11,SE,136,0.0,0.0,96,0.03,CLR,,0.37,WeatherDisplay:10.37,2013-05-20 02:10:00,
2013-05-19 22:15:00,67.2,66.0,30.11,SE,135,0.0,0.0,96,0.02,CLR,,0.37,WeatherDisplay:10.37,2013-05-20 02:15:00,
2013-05-19 22:20:00,67.1,65.9,30.11,SE,135,0.0,0.0,96,0.02,CLR,,0.37,WeatherDisplay:10.37,2013-05-20 02:20:00,
2013-05-19 22:25:00,67.1,65.9,30.11,SE,135,0.0,0.0,96,0.01,CLR,,0.37,WeatherDisplay:10.37,2013-05-20 02:25:00,
2013-05-19 22:30:00,67.1,65.9,30.11,SE,135,0.0,0.0,96,0.01,CLR,,0.37,WeatherDisplay:10.37,2013-05-20 02:30:00,
2013-05-19 22:35:00,67.1,65.9,30.11,SE,128,0.0,0.0,96,0.02,RA,,0.38,WeatherDisplay:10.37,2013-05-20 02:35:00,
2013-05-19 22:40:00,67.1,65.9,30.11,ESE,122,1.1,1.1,96,0.02,RA,,0.38,WeatherDisplay:10.37,2013-05-20 02:40:00,
2013-05-19 22:45:00,67.1,65.9,30.11,ESE,122,1.1,0.0,96,0.01,,,0.38,WeatherDisplay:10.37,2013-05-20 02:45:00,
2013-05-19 22:50:00,67.1,65.9,30.11,SE,130,0.0,0.0,96,0.01,CLR,,0.38,WeatherDisplay:10.37,2013-05-20 02:50:00,
2013-05-19 22:55:00,67.1,65.9,30.11,SE,130,0.0,0.0,96,0.02,RA,,0.39,WeatherDisplay:10.37,2013-05-20 02:55:00,
2013-05-19 23:00:00,67.1,65.9,30.11,SE,129,0.0,0.0,96,0.02,RA,,0.39,WeatherDisplay:10.37,2013-05-20 03:00:00,
2013-05-19 23:05:00,67.1,66.2,30.11,SE,130,0.0,0.0,97,0.02,,,0.39,WeatherDisplay:10.37,2013-05-20 03:05:00,
2013-05-19 23:10:00,67.0,66.1,30.11,SE,129,0.0,0.0,97,0.03,RA,,0.40,WeatherDisplay:10.37,2013-05-20 03:10:00,
2013-05-19 23:15:00,67.1,66.2,30.10,SE,129,0.0,0.0,97,0.03,RA,,0.40,WeatherDisplay:10.37,2013-05-20 03:15:00,
2013-05-19 23:20:00,67.0,66.1,30.10,SE,130,0.0,0.0,97,0.03,,,0.40,WeatherDisplay:10.37,2013-05-20 03:20:00,
2013-05-19 23:25:00,67.0,66.1,30.10,SE,129,0.0,0.0,97,0.04,RA,,0.41,WeatherDisplay:10.37,2013-05-20 03:25:00,
2013-05-19 23:30:00,67.0,66.1,30.10,SE,129,0.0,0.0,97,0.04,RA,,0.41,WeatherDisplay:10.37,2013-05-20 03:30:00,
2013-05-19 23:35:00,67.0,66.1,30.10,SE,129,0.0,0.0,97,0.03,,,0.41,WeatherDisplay:10.37,2013-05-20 03:35:00,
2013-05-19 23:40:00,67.0,66.1,30.10,SE,146,0.0,0.0,97,0.03,CLR,,0.41,WeatherDisplay:10.37,2013-05-20 03:40:00,
2013-05-19 23:45:00,66.9,66.0,30.10,SE,145,0.0,0.0,97,0.04,RA,,0.42,WeatherDisplay:10.37,2013-05-20 03:45:00,
2013-05-19 23:50:00,66.9,66.0,30.10,SE,145,0.0,0.0,97,0.04,RA,,0.42,WeatherDisplay:10.37,2013-05-20 03:50:00,
2013-05-19 23:55:00,67.0,66.1,30.10,SE,145,0.0,0.0,97,0.03,CLR,,0.42,WeatherDisplay:10.37,2013-05-20 03:55:00,